createdAt,value
2022-12-22T00:01:54.751Z,5.65
2022-12-22T00:04:40.469Z,6.50
2022-12-22T00:07:25.843Z,6.90
2022-12-22T00:10:10.625Z,7.13
2022-12-22T00:12:55.837Z,6.88
2022-12-22T00:15:41.394Z,6.95
2022-12-22T00:18:33.957Z,7.90
2022-12-22T00:21:19.152Z,7.32
2022-12-22T00:24:04.062Z,7.07
2022-12-22T00:26:52.965Z,7.32
2022-12-22T00:29:38.791Z,7.82
2022-12-22T00:32:24.656Z,7.07
2022-12-22T00:35:09.892Z,7.43
2022-12-22T00:37:56.219Z,7.18
2022-12-22T00:46:15.598Z,6.53
2022-12-22T00:49:03.016Z,6.88
2022-12-22T00:51:49.273Z,7.50
2022-12-22T00:54:36.694Z,7.40
2022-12-22T00:57:22.745Z,7.68
2022-12-22T01:00:08.898Z,7.85
2022-12-22T01:02:54.476Z,7.93
2022-12-22T01:05:40.221Z,7.13
2022-12-22T01:08:29.623Z,8.60
2022-12-22T01:11:15.038Z,8.43
2022-12-22T01:14:00.352Z,8.60
2022-12-22T01:16:45.138Z,7.78
2022-12-22T01:19:30.327Z,8.40
2022-12-22T01:22:16.173Z,9.25
2022-12-22T01:25:02.066Z,8.57
2022-12-22T01:27:46.890Z,9.00
2022-12-22T01:30:32.200Z,9.13
2022-12-22T01:33:17.093Z,7.50
2022-12-22T01:36:01.882Z,8.30
2022-12-22T01:38:46.827Z,8.73
2022-12-22T01:41:36.610Z,8.52
2022-12-22T01:44:32.172Z,8.50
2022-12-22T01:47:48.429Z,8.05
2022-12-22T01:50:45.589Z,8.07
2022-12-22T01:53:36.242Z,7.68
2022-12-22T01:56:21.923Z,8.40
2022-12-22T01:59:13.806Z,8.60
2022-12-22T02:02:00.884Z,7.53
2022-12-22T02:04:52.406Z,6.80
2022-12-22T02:07:44.473Z,7.85
2022-12-22T02:10:37.129Z,7.50
2022-12-22T02:13:47.981Z,7.70
2022-12-22T02:16:56.925Z,7.80
2022-12-22T02:19:53.781Z,8.05
2022-12-22T02:25:39.141Z,6.07
2022-12-22T02:28:24.905Z,7.55
2022-12-22T02:31:11.198Z,6.60
2022-12-22T02:37:26.324Z,9.57
2022-12-22T02:40:23.607Z,9.80
2022-12-22T02:43:21.275Z,10.52
2022-12-22T02:46:45.525Z,10.32
2022-12-22T02:49:57.023Z,10.90
2022-12-22T02:52:49.487Z,10.57
2022-12-22T02:55:35.910Z,10.20
2022-12-22T02:58:20.661Z,10.13
2022-12-22T03:01:06.460Z,11.55
2022-12-22T03:03:51.226Z,12.23
2022-12-22T03:06:36.361Z,12.02
2022-12-22T03:09:21.754Z,11.20
2022-12-22T03:12:06.435Z,10.10
2022-12-22T03:14:51.213Z,9.98
2022-12-22T03:17:36.115Z,9.13
2022-12-22T03:20:20.851Z,9.48
2022-12-22T03:23:05.701Z,9.90
2022-12-22T03:25:50.415Z,8.52
2022-12-22T03:28:16.794Z,9.30
2022-12-22T03:30:43.127Z,10.07
2022-12-22T03:33:09.447Z,9.48
2022-12-22T03:35:36.071Z,8.60
2022-12-22T03:38:03.476Z,9.13
2022-12-22T03:40:31.607Z,9.05
2022-12-22T03:43:17.349Z,9.70
2022-12-22T03:46:02.140Z,9.40
2022-12-22T03:48:28.528Z,8.63
2022-12-22T03:50:55.005Z,8.60
2022-12-22T03:53:21.827Z,8.52
2022-12-22T03:55:48.587Z,8.45
2022-12-22T03:58:15.332Z,8.35
2022-12-22T04:00:41.954Z,8.90
2022-12-22T04:03:08.843Z,8.05
2022-12-22T04:05:35.615Z,9.43
2022-12-22T04:08:02.642Z,8.65
2022-12-22T04:10:47.605Z,8.20
2022-12-22T04:13:13.956Z,7.13
2022-12-22T04:15:40.444Z,8.07
2022-12-22T04:18:07.043Z,8.45
2022-12-22T04:20:33.446Z,7.22
2022-12-22T04:23:00.324Z,8.50
2022-12-22T04:25:28.156Z,8.32
2022-12-22T04:27:54.490Z,7.70
2022-12-22T04:30:20.936Z,8.15
2022-12-22T04:32:47.276Z,8.40
2022-12-22T04:35:13.604Z,8.45
2022-12-22T04:37:39.974Z,8.32
2022-12-22T04:40:06.862Z,8.50
2022-12-22T04:42:33.326Z,8.32
2022-12-22T04:44:59.650Z,8.00
2022-12-22T04:47:26.018Z,7.40
2022-12-22T04:49:52.391Z,7.90
2022-12-22T04:52:18.739Z,8.13
2022-12-22T04:54:45.066Z,7.50
2022-12-22T04:57:11.484Z,7.50
2022-12-22T04:59:37.870Z,7.70
2022-12-22T05:02:04.469Z,7.68
2022-12-22T05:04:31.015Z,7.30
2022-12-22T05:06:57.541Z,7.00
2022-12-22T05:09:23.859Z,7.47
2022-12-22T05:11:50.183Z,7.40
2022-12-22T05:14:16.512Z,6.85
2022-12-22T05:16:42.932Z,6.80
2022-12-22T05:19:09.476Z,7.28
2022-12-22T05:21:35.839Z,7.10
2022-12-22T05:24:02.257Z,6.68
2022-12-22T05:26:28.572Z,6.70
2022-12-22T05:28:54.935Z,7.40
2022-12-22T05:31:24.001Z,6.60
2022-12-22T05:33:50.648Z,6.57
2022-12-22T05:36:17.089Z,6.97
2022-12-22T05:38:44.675Z,7.47
2022-12-22T05:41:11.442Z,7.80
2022-12-22T05:43:37.791Z,6.85
2022-12-22T05:46:06.509Z,7.65
2022-12-22T05:48:38.090Z,7.47
2022-12-22T05:51:05.685Z,7.65
2022-12-22T05:53:32.059Z,7.53
2022-12-22T05:55:58.411Z,6.78
2022-12-22T05:58:24.816Z,7.35
2022-12-22T06:00:51.331Z,8.23
2022-12-22T06:03:17.987Z,8.32
2022-12-22T06:05:44.415Z,7.75
2022-12-22T06:08:10.760Z,7.50
2022-12-22T06:10:37.081Z,7.45
2022-12-22T06:13:03.430Z,7.55
2022-12-22T06:15:29.747Z,7.65
2022-12-22T06:17:56.207Z,8.05
2022-12-22T06:20:22.562Z,7.55
2022-12-22T06:22:48.915Z,8.07
2022-12-22T06:25:18.421Z,7.85
2022-12-22T06:27:46.116Z,8.40
2022-12-22T06:30:12.834Z,7.97
2022-12-22T06:32:39.513Z,8.40
2022-12-22T06:35:07.598Z,9.32
2022-12-22T06:37:34.084Z,9.18
2022-12-22T06:40:00.482Z,9.13
2022-12-22T06:42:45.551Z,9.23
2022-12-22T06:45:12.030Z,9.07
2022-12-22T06:47:38.414Z,9.35
2022-12-22T06:50:05.569Z,10.27
2022-12-22T06:52:31.910Z,9.85
2022-12-22T06:54:59.585Z,10.13
2022-12-22T06:57:25.908Z,10.18
2022-12-22T06:59:57.260Z,9.68
2022-12-22T07:02:24.417Z,9.02
2022-12-22T07:04:51.199Z,9.23
2022-12-22T07:07:17.539Z,9.85
2022-12-22T07:09:43.976Z,10.25
2022-12-22T07:12:10.308Z,10.40
2022-12-22T07:14:36.696Z,10.43
2022-12-22T07:17:03.113Z,9.23
2022-12-22T07:19:29.511Z,9.85
2022-12-22T07:21:55.864Z,10.52
2022-12-22T07:24:25.664Z,10.85
2022-12-22T07:26:52.671Z,10.73
2022-12-22T07:29:19.081Z,13.05
2022-12-22T07:31:45.586Z,11.82
2022-12-22T07:34:12.247Z,11.00
2022-12-22T07:36:38.613Z,10.48
2022-12-22T07:39:05.087Z,11.07
2022-12-22T07:41:50.129Z,10.32
2022-12-22T07:44:16.450Z,9.48
2022-12-22T07:46:42.926Z,9.45
2022-12-22T07:49:30.020Z,11.38
2022-12-22T07:51:58.155Z,10.48
2022-12-22T07:54:26.203Z,10.77
2022-12-22T07:56:52.793Z,11.75
2022-12-22T07:59:19.573Z,11.13
2022-12-22T08:01:47.240Z,11.00
2022-12-22T08:04:14.858Z,11.07
2022-12-22T08:06:41.214Z,10.68
2022-12-22T08:09:08.389Z,10.63
2022-12-22T08:11:34.982Z,10.52
2022-12-22T08:14:02.219Z,9.35
2022-12-22T08:16:29.556Z,10.88
2022-12-22T08:18:56.277Z,9.73
2022-12-22T08:21:22.606Z,9.45
2022-12-22T08:23:48.970Z,8.90
2022-12-22T08:26:27.835Z,9.40
2022-12-22T08:29:12.926Z,9.57
2022-12-22T08:31:40.220Z,10.90
2022-12-22T08:34:09.149Z,9.38
2022-12-22T08:36:40.186Z,8.43
2022-12-22T08:39:07.857Z,9.93
2022-12-22T08:41:50.988Z,10.63
2022-12-22T08:44:26.536Z,10.48
2022-12-22T08:46:54.521Z,10.00
2022-12-22T08:49:21.359Z,10.65
2022-12-22T08:51:48.092Z,11.88
2022-12-22T08:54:15.139Z,10.85
2022-12-22T08:56:42.397Z,10.98
2022-12-22T08:59:09.615Z,10.07
2022-12-22T09:01:38.445Z,11.52
2022-12-22T09:04:06.928Z,11.63
2022-12-22T09:06:38.553Z,12.38
2022-12-22T09:09:09.332Z,11.68
2022-12-22T09:11:35.887Z,11.98
2022-12-22T09:14:03.088Z,11.40
2022-12-22T09:16:31.924Z,12.45
2022-12-22T09:18:58.714Z,13.15
2022-12-22T09:21:25.651Z,14.45
2022-12-22T09:23:52.458Z,13.77
2022-12-22T09:26:21.106Z,14.38
2022-12-22T09:28:50.346Z,12.60
2022-12-22T09:31:18.564Z,12.88
2022-12-22T09:33:44.937Z,14.32
2022-12-22T09:36:14.860Z,14.65
2022-12-22T09:38:42.012Z,14.30
2022-12-22T09:41:15.190Z,13.93
2022-12-22T09:43:54.265Z,14.43
2022-12-22T09:46:26.366Z,13.65
2022-12-22T09:48:54.135Z,13.73
2022-12-22T09:51:26.687Z,12.55
2022-12-22T09:54:01.550Z,13.77
2022-12-22T09:56:29.080Z,13.18
2022-12-22T09:58:55.851Z,13.02
2022-12-22T10:01:41.273Z,12.20
2022-12-22T10:04:38.792Z,12.07
2022-12-22T10:07:20.172Z,12.50
2022-12-22T10:09:50.170Z,11.70
2022-12-22T10:12:23.838Z,13.20
2022-12-22T10:14:52.352Z,13.13
2022-12-22T10:17:34.503Z,12.48
2022-12-22T10:20:31.065Z,13.00
2022-12-22T10:23:04.193Z,12.20
2022-12-22T10:26:17.083Z,12.80
2022-12-22T10:28:27.712Z,13.40
2022-12-22T10:31:11.818Z,13.18
2022-12-22T10:33:44.308Z,12.57
2022-12-22T10:36:18.927Z,13.70
2022-12-22T10:39:00.408Z,12.48
2022-12-22T10:41:30.728Z,12.40
2022-12-22T10:44:04.221Z,13.45
2022-12-22T10:46:35.025Z,13.70
2022-12-22T10:49:12.884Z,13.23
2022-12-22T10:51:41.069Z,12.85
2022-12-22T10:54:07.513Z,12.50
2022-12-22T10:56:34.667Z,12.30
2022-12-22T10:59:20.192Z,11.90
2022-12-22T11:01:46.922Z,11.67
2022-12-22T11:04:27.945Z,12.05
2022-12-22T11:06:58.332Z,12.05
2022-12-22T11:09:35.099Z,12.32
2022-12-22T11:12:39.117Z,12.57
2022-12-22T11:15:45.264Z,12.27
2022-12-22T11:18:39.402Z,11.25
2022-12-22T11:21:30.283Z,12.15
2022-12-22T11:24:31.610Z,11.27
2022-12-22T11:27:16.504Z,11.85
2022-12-22T11:30:10.142Z,11.15
2022-12-22T11:32:56.813Z,11.77
2022-12-22T11:35:50.561Z,10.93
2022-12-22T11:38:31.563Z,11.70
2022-12-22T11:41:15.009Z,11.13
2022-12-22T11:44:28.084Z,10.63
2022-12-22T11:47:15.385Z,10.32
2022-12-22T11:49:55.152Z,10.20
2022-12-22T11:53:08.701Z,9.73
2022-12-22T11:55:40.364Z,10.45
2022-12-22T11:58:26.222Z,9.57
2022-12-22T12:01:20.521Z,9.82
2022-12-22T12:03:51.109Z,8.38
2022-12-22T12:06:48.398Z,8.75
2022-12-22T12:09:34.934Z,8.20
2022-12-22T12:12:39.527Z,8.05
2022-12-22T12:15:32.421Z,8.82
2022-12-22T12:18:15.522Z,8.70
2022-12-22T12:21:10.632Z,9.35
2022-12-22T12:23:46.072Z,9.07
2022-12-22T12:26:22.130Z,9.50
2022-12-22T12:29:18.665Z,9.85
2022-12-22T12:32:09.568Z,9.95
2022-12-22T12:34:41.795Z,10.25
2022-12-22T12:37:24.240Z,9.80
2022-12-22T12:40:31.878Z,9.43
2022-12-22T12:42:59.778Z,9.20
2022-12-22T12:45:41.194Z,9.40
2022-12-22T12:48:25.531Z,9.20
2022-12-22T12:50:59.116Z,9.18
2022-12-22T12:53:27.320Z,9.57
2022-12-22T12:56:00.324Z,9.30
2022-12-22T12:58:35.537Z,9.35
2022-12-22T13:01:26.948Z,9.25
2022-12-22T13:04:03.016Z,8.85
2022-12-22T13:06:51.853Z,9.07
2022-12-22T13:12:50.929Z,9.38
2022-12-22T13:15:35.218Z,8.93
2022-12-22T13:18:05.345Z,9.00
2022-12-22T13:20:37.123Z,8.88
2022-12-22T13:23:11.962Z,9.48
2022-12-22T13:26:01.358Z,8.95
2022-12-22T13:28:29.301Z,9.00
2022-12-22T13:31:14.276Z,9.23
2022-12-22T13:33:42.250Z,9.68
2022-12-22T13:36:18.288Z,9.88
2022-12-22T13:38:44.822Z,9.35
2022-12-22T13:41:24.744Z,9.15
2022-12-22T13:43:57.010Z,8.95
2022-12-22T13:46:23.599Z,8.65
2022-12-22T13:48:53.783Z,9.13
2022-12-22T13:51:23.793Z,9.10
2022-12-22T13:54:10.922Z,8.90
2022-12-22T13:56:46.019Z,9.40
2022-12-22T13:59:27.645Z,8.80
2022-12-22T14:02:03.153Z,8.43
2022-12-22T14:04:30.898Z,8.85
2022-12-22T14:06:57.368Z,9.43
2022-12-22T14:09:23.652Z,8.43
2022-12-22T14:12:14.473Z,8.68
2022-12-22T14:14:44.185Z,8.38
2022-12-22T14:17:38.047Z,8.63
2022-12-22T14:20:27.742Z,8.95
2022-12-22T14:23:07.393Z,8.77
2022-12-22T14:25:37.906Z,9.23
2022-12-22T14:28:06.868Z,8.02
2022-12-22T14:30:41.463Z,8.32
2022-12-22T14:33:23.200Z,8.00
2022-12-22T14:35:50.314Z,8.40
2022-12-22T14:38:23.687Z,7.85
2022-12-22T14:40:56.856Z,8.77
2022-12-22T14:43:28.307Z,8.88
2022-12-22T14:46:04.255Z,8.30
2022-12-22T14:51:00.805Z,8.20
2022-12-22T14:53:37.122Z,7.82
2022-12-22T14:56:03.532Z,8.88
2022-12-22T14:58:35.156Z,8.77
2022-12-22T15:01:21.424Z,8.38
2022-12-22T15:06:45.585Z,7.03
2022-12-22T15:09:14.943Z,7.15
2022-12-22T15:11:51.222Z,7.63
2022-12-22T15:14:20.146Z,7.07
2022-12-22T15:16:46.951Z,7.53
2022-12-22T15:19:20.782Z,7.78
2022-12-22T15:21:47.216Z,8.93
2022-12-22T15:24:16.161Z,8.07
2022-12-22T15:26:43.190Z,8.43
2022-12-22T15:29:09.627Z,8.20
2022-12-22T15:31:38.133Z,8.18
2022-12-22T15:34:13.013Z,9.55
2022-12-22T15:36:39.345Z,9.05
2022-12-22T15:39:13.481Z,8.07
2022-12-22T15:41:39.840Z,8.43
2022-12-22T15:44:06.163Z,10.10
2022-12-22T15:46:32.735Z,8.93
2022-12-22T15:49:02.147Z,9.20
2022-12-22T15:51:31.807Z,9.27
2022-12-22T15:53:58.969Z,10.20
2022-12-22T15:56:30.086Z,9.82
2022-12-22T15:58:57.199Z,10.88
2022-12-22T16:01:23.666Z,10.82
2022-12-22T16:03:50.132Z,10.85
2022-12-22T16:06:19.401Z,10.90
2022-12-22T16:08:49.494Z,12.15
2022-12-22T16:11:16.789Z,11.15
2022-12-22T16:13:43.207Z,11.25
2022-12-22T16:16:09.710Z,11.73
2022-12-22T16:18:36.086Z,11.80
2022-12-22T16:21:15.568Z,10.70
2022-12-22T16:23:44.834Z,11.30
2022-12-22T16:26:17.348Z,10.60
2022-12-22T16:28:43.788Z,10.98
2022-12-22T16:31:23.349Z,12.00
2022-12-22T16:33:50.460Z,10.98
2022-12-22T16:36:17.500Z,10.43
2022-12-22T16:38:45.885Z,11.15
2022-12-22T16:41:19.392Z,11.98
2022-12-22T16:46:30.774Z,12.50
2022-12-22T16:49:00.905Z,11.98
2022-12-22T16:51:33.916Z,11.68
2022-12-22T16:54:01.894Z,10.85
2022-12-22T16:56:30.293Z,11.80
2022-12-22T16:58:57.504Z,12.27
2022-12-22T17:01:39.179Z,13.13
2022-12-22T17:04:44.075Z,13.60
2022-12-22T17:07:11.548Z,13.85
2022-12-22T17:09:48.054Z,13.80
2022-12-22T17:12:18.828Z,12.85
2022-12-22T17:14:46.632Z,13.02
2022-12-22T17:17:17.796Z,12.30
2022-12-22T17:19:44.818Z,11.05
2022-12-22T17:22:25.067Z,11.82
2022-12-22T17:24:53.797Z,12.43
2022-12-22T17:27:24.571Z,11.60
2022-12-22T17:29:52.111Z,13.57
2022-12-22T17:32:20.750Z,14.43
2022-12-22T17:34:47.553Z,14.85
2022-12-22T17:37:23.174Z,15.95
2022-12-22T17:40:01.446Z,17.15
2022-12-22T17:42:27.953Z,14.55
2022-12-22T17:44:54.375Z,15.00
2022-12-22T17:47:26.866Z,15.70
2022-12-22T17:49:58.531Z,15.77
2022-12-22T17:52:26.924Z,16.83
2022-12-22T17:54:54.148Z,17.40
2022-12-22T17:57:25.698Z,15.75
2022-12-22T17:59:52.020Z,16.88
2022-12-22T18:02:20.751Z,16.15
2022-12-22T18:04:48.179Z,15.40
2022-12-22T18:07:18.488Z,15.93
2022-12-22T18:09:46.125Z,15.63
2022-12-22T18:12:24.645Z,16.00
2022-12-22T18:14:52.062Z,15.32
2022-12-22T18:17:21.835Z,15.00
2022-12-22T18:19:48.385Z,15.15
2022-12-22T18:22:21.378Z,15.85
2022-12-22T18:24:49.481Z,15.43
2022-12-22T18:27:16.729Z,15.73
2022-12-22T18:29:43.981Z,16.90
2022-12-22T18:32:11.184Z,17.13
2022-12-22T18:34:38.489Z,17.48
2022-12-22T18:37:10.741Z,16.25
2022-12-22T18:39:37.304Z,17.55
2022-12-22T18:42:04.156Z,15.65
2022-12-22T18:44:30.586Z,17.30
2022-12-22T18:46:59.107Z,17.90
2022-12-22T18:49:25.506Z,17.85
2022-12-22T18:51:51.881Z,18.27
2022-12-22T18:54:36.267Z,16.25
2022-12-22T18:57:03.581Z,15.88
2022-12-22T18:59:31.043Z,16.35
2022-12-22T19:02:30.275Z,15.60
2022-12-22T19:04:56.981Z,16.20
2022-12-22T19:07:24.932Z,18.13
2022-12-22T19:09:51.432Z,18.10
2022-12-22T19:12:25.144Z,17.08
2022-12-22T19:14:57.504Z,16.15
2022-12-22T19:17:27.206Z,16.67
2022-12-22T19:19:53.667Z,17.83
2022-12-22T19:22:20.595Z,17.08
2022-12-22T19:24:47.522Z,17.65
2022-12-22T19:27:23.835Z,18.83
2022-12-22T19:30:02.685Z,17.38
2022-12-22T19:32:34.535Z,17.60
2022-12-22T19:35:01.012Z,18.17
2022-12-22T19:37:27.344Z,18.80
2022-12-22T19:39:53.704Z,19.08
2022-12-22T19:42:22.931Z,17.98
2022-12-22T19:44:49.299Z,17.80
2022-12-22T19:47:19.417Z,18.50
2022-12-22T19:49:45.897Z,18.45
2022-12-22T19:52:12.211Z,18.42
2022-12-22T19:54:38.570Z,17.85
2022-12-22T19:57:12.771Z,18.52
2022-12-22T19:59:45.843Z,18.58
2022-12-22T20:02:21.183Z,17.17
2022-12-22T20:04:48.895Z,17.73
2022-12-22T20:07:16.828Z,16.17
2022-12-22T20:09:44.170Z,16.25
2022-12-22T20:12:33.926Z,15.05
2022-12-22T20:15:01.313Z,14.32
2022-12-22T20:17:27.882Z,14.70
2022-12-22T20:19:54.325Z,14.43
2022-12-22T20:22:22.703Z,14.18
2022-12-22T20:24:50.738Z,12.90
2022-12-22T20:27:27.524Z,13.05
2022-12-22T20:29:54.045Z,13.20
2022-12-22T20:32:27.299Z,14.25
2022-12-22T20:34:54.650Z,14.00
2022-12-22T20:37:21.017Z,13.27
2022-12-22T20:39:47.552Z,13.55
2022-12-22T20:42:19.381Z,14.02
2022-12-22T20:45:02.747Z,13.23
2022-12-22T20:47:31.426Z,12.63
2022-12-22T20:49:57.757Z,13.13
2022-12-22T20:52:24.161Z,12.73
2022-12-22T20:54:50.620Z,14.10
2022-12-22T20:57:17.037Z,12.77
2022-12-22T20:59:44.331Z,12.73
2022-12-22T21:02:27.213Z,12.55
2022-12-22T21:04:53.883Z,14.45
2022-12-22T21:07:20.240Z,14.25
2022-12-22T21:09:46.573Z,12.93
2022-12-22T21:12:12.937Z,13.13
2022-12-22T21:14:39.686Z,12.68
2022-12-22T21:17:15.316Z,13.07
2022-12-22T21:19:41.741Z,12.38
2022-12-22T21:22:08.076Z,11.80
2022-12-22T21:24:34.475Z,12.23
2022-12-22T21:27:00.863Z,11.95
2022-12-22T21:29:27.492Z,12.20
2022-12-22T21:31:54.238Z,12.48
2022-12-22T21:34:20.809Z,11.90
2022-12-22T21:36:51.344Z,12.20
2022-12-22T21:39:34.384Z,11.32
2022-12-22T21:42:00.786Z,11.25
2022-12-22T21:44:29.180Z,11.18
2022-12-22T21:46:56.747Z,11.55
2022-12-22T21:49:25.901Z,11.00
2022-12-22T21:51:53.537Z,10.75
2022-12-22T21:54:21.315Z,11.80
2022-12-22T21:56:48.713Z,10.38
2022-12-22T21:59:15.630Z,10.35
2022-12-22T22:01:42.957Z,10.40
2022-12-22T22:04:09.743Z,10.45
2022-12-22T22:06:36.279Z,10.25
2022-12-22T22:09:05.033Z,10.45
2022-12-22T22:11:31.831Z,9.60
2022-12-22T22:13:58.242Z,9.38
2022-12-22T22:16:24.917Z,9.95
2022-12-22T22:18:51.293Z,10.27
2022-12-22T22:21:17.947Z,9.45
2022-12-22T22:23:44.320Z,10.00
2022-12-22T22:26:11.251Z,9.10
2022-12-22T22:28:38.013Z,8.63
2022-12-22T22:31:11.449Z,8.55
2022-12-22T22:33:38.177Z,9.55
2022-12-22T22:36:08.250Z,9.35
2022-12-22T22:38:35.450Z,9.15
2022-12-22T22:41:01.945Z,8.98
2022-12-22T22:43:28.290Z,8.68
2022-12-22T22:45:54.717Z,8.82
2022-12-22T22:48:22.323Z,8.77
2022-12-22T22:50:49.200Z,9.05
2022-12-22T22:53:15.907Z,8.85
2022-12-22T22:55:42.219Z,8.68
2022-12-22T22:58:11.176Z,7.90
2022-12-22T23:00:38.121Z,8.02
2022-12-22T23:03:04.960Z,8.27
2022-12-22T23:05:31.708Z,8.27
2022-12-22T23:07:58.251Z,8.18
2022-12-22T23:10:24.709Z,8.05
2022-12-22T23:12:51.027Z,7.53
2022-12-22T23:15:17.403Z,8.40
2022-12-22T23:17:43.797Z,7.50
2022-12-22T23:20:10.616Z,7.32
2022-12-22T23:22:36.993Z,7.53
2022-12-22T23:25:03.535Z,7.18
2022-12-22T23:27:30.308Z,7.22
2022-12-22T23:29:56.639Z,6.32
2022-12-22T23:32:23.530Z,7.35
2022-12-22T23:34:49.888Z,6.63
2022-12-22T23:37:19.564Z,6.90
2022-12-22T23:39:46.701Z,7.20
2022-12-22T23:42:13.140Z,7.38
2022-12-22T23:44:39.545Z,6.82
2022-12-22T23:47:05.959Z,6.63
2022-12-22T23:49:32.400Z,6.75
2022-12-22T23:51:58.774Z,6.30
2022-12-22T23:54:25.164Z,5.93
2022-12-22T23:56:51.620Z,6.70
2022-12-22T23:59:17.956Z,6.35
